American Star — WDD7311 — position and weather

sailwx.info

Track history (hours):
 
Tides and Currents Weather Stations Pressure Air Temp Water Temp Dewpoint Dewpoint Depression Visibility Wind Speed Wind Dir Waves Ship Positions

American Star

Owner: American Cruise Lines, Inc, Guilford, CT. More information available from US FCC via Universal Licensing System and Coast Guard Vessel Documentation Center.

Last reported at 2017-May-26 16:30 UTC. Time now 2017-May-26 16:55 UTC.
Position N 39°17' W 076°36'.

Length 60 m; draft 2.1 m.

Type: Ship (hazmat cat C). MMSI: 367184740.

Date/timePositionNaut miles runAvg speedWind from/ knotsBaromVisibWave heightAir tempDewpointWater temp
2017-May-26 16:30N 39°17' W 076°36'4 7.2
2017-May-26 16:00N 39°14' W 076°33'510.1
2017-May-26 15:30N 39°11' W 076°28'5 9.7
2017-May-26 15:00N 39°07' W 076°24'510.1
2017-May-26 14:30N 39°02' W 076°23'9 8.9
2017-May-26 13:30N 38°54' W 076°26'12 1.3
2017-May-26 04:18N 38°47' W 076°13'0 0.0
2017-May-26 02:26N 38°47' W 076°13'0 0.0
2017-May-26 01:50N 38°47' W 076°13'111 4.0
2017-May-24 22:12N 36°57' W 076°20'210.4
2017-May-24 22:00N 36°55' W 076°20'5 9.5
2017-May-24 21:31N 36°51' W 076°18'0 0.2
2017-May-24 21:01N 36°51' W 076°18'0 0.0
2017-May-24 20:28N 36°51' W 076°18'0 0.0
2017-May-24 20:01N 36°51' W 076°18'0 0.0
2017-May-24 19:25N 36°51' W 076°18'0 0.0
2017-May-24 19:01N 36°51' W 076°18'0 0.0
2017-May-24 18:28N 36°51' W 076°18'0 0.0
2017-May-24 17:58N 36°51' W 076°18'0 0.0
2017-May-24 17:31N 36°51' W 076°18'0 0.0
2017-May-24 17:01N 36°51' W 076°18'0 0.0
2017-May-24 16:31N 36°51' W 076°18'0 0.0
2017-May-24 16:01N 36°51' W 076°18'0 0.0
2017-May-24 15:31N 36°51' W 076°18'0 0.0
2017-May-24 15:01N 36°51' W 076°18'0 0.0
2017-May-24 14:28N 36°51' W 076°18'0 0.0
2017-May-24 13:31N 36°51' W 076°18'0 0.0
2017-May-24 13:01N 36°51' W 076°18'0 0.0
2017-May-24 12:28N 36°51' W 076°18'0 0.0
2017-May-24 12:01N 36°51' W 076°18'0 0.0
2017-May-24 11:31N 36°51' W 076°18'0 0.0
2017-May-24 11:01N 36°51' W 076°18'0 0.0
2017-May-24 10:31N 36°51' W 076°18'0 0.0
2017-May-24 10:01N 36°51' W 076°18'0 0.0
2017-May-24 09:28N 36°51' W 076°18'0 0.0
2017-May-24 09:01N 36°51' W 076°18'0 0.0
2017-May-24 08:31N 36°51' W 076°18'0 0.0
2017-May-24 08:01N 36°51' W 076°18'0 0.0
2017-May-24 07:31N 36°51' W 076°18'0 0.0
2017-May-24 07:01N 36°51' W 076°18'0 0.0
2017-May-24 06:31N 36°51' W 076°18'0 0.0
2017-May-24 06:01N 36°51' W 076°18'0 0.0
2017-May-24 05:30N 36°51' W 076°18'0 0.0
2017-May-24 05:00N 36°51' W 076°18'0 0.0
2017-May-24 04:31N 36°51' W 076°18'0 0.0
2017-May-24 04:00N 36°51' W 076°18'3 6.5
2017-May-24 03:30N 36°47' W 076°18'3 6.0
2017-May-24 03:00N 36°44' W 076°18'3 4.1
2017-May-24 02:21N 36°43' W 076°15'101 3.8
2017-May-22 23:47N 35°03' W 076°35'4 9.4
2017-May-22 23:20N 35°01' W 076°39'3 9.0
2017-May-22 22:59N 34°59' W 076°42'3 6.8
2017-May-22 22:31N 34°56' W 076°39'3 6.7
2017-May-22 22:00N 34°53' W 076°41'4 7.8
2017-May-22 21:31N 34°49' W 076°41'4 7.5
2017-May-22 21:01N 34°46' W 076°40'3 6.7
2017-May-22 20:30N 34°42' W 076°41'0 0.1
2017-May-22 19:57N 34°42' W 076°41'0 0.0
2017-May-22 19:30N 34°42' W 076°41'0 0.0
2017-May-22 19:00N 34°42' W 076°41'0 0.0
2017-May-22 18:30N 34°42' W 076°41'0 0.0
2017-May-22 18:00N 34°42' W 076°41'0 0.0
2017-May-22 17:30N 34°42' W 076°41'0 0.0
2017-May-22 17:00N 34°42' W 076°41'0 0.0
2017-May-22 16:30N 34°42' W 076°41'0 0.0
2017-May-22 16:00N 34°42' W 076°41'0 0.0
2017-May-22 15:30N 34°42' W 076°41'0 0.0
2017-May-22 15:00N 34°42' W 076°41'0 0.0
2017-May-22 14:00N 34°42' W 076°41'0 0.0
2017-May-22 12:37N 34°42' W 076°41'0 0.0
2017-May-22 12:28N 34°42' W 076°41'0 0.0
2017-May-22 12:00N 34°42' W 076°41'2 3.8
2017-May-22 11:30N 34°41' W 076°40'5 9.9
2017-May-22 11:00N 34°39' W 076°46'611.5
2017-May-22 10:30N 34°38' W 076°53'  
2017-May-19 11:04N 32°43' W 080°11'2 5.2
2017-May-19 10:36N 32°42' W 080°13'2 4.5
2017-May-19 10:15N 32°41' W 080°14'1 4.3
2017-May-19 09:55N 32°39' W 080°15'3 5.0
2017-May-19 09:24N 32°38' W 080°17'3 7.9
2017-May-19 08:59N 32°38' W 080°21'3 6.1
2017-May-19 08:30N 32°36' W 080°23'4 7.7
2017-May-19 08:00N 32°33' W 080°25'5 8.7
2017-May-19 07:27N 32°28' W 080°25'3 7.8
2017-May-19 07:01N 32°29' W 080°29'610.0
2017-May-19 06:26N 32°30' W 080°36'5 8.3
2017-May-19 05:52N 32°30' W 080°41'3 7.5
2017-May-19 05:30N 32°27' W 080°41'11 0.3
2017-May-17 21:57N 32°16' W 080°43'3 7.3
2017-May-17 21:30N 32°14' W 080°45'4 7.5
2017-May-17 21:00N 32°11' W 080°47'3 5.2
2017-May-17 20:29N 32°09' W 080°49'0 0.0
2017-May-17 19:59N 32°09' W 080°49'0 0.1
2017-May-17 19:23N 32°09' W 080°49'0 0.0
2017-May-17 18:59N 32°09' W 080°49'0 0.0
2017-May-17 18:23N 32°09' W 080°49'0 0.0
2017-May-17 17:59N 32°09' W 080°49'0 0.0
2017-May-17 17:29N 32°09' W 080°49'0 0.0
2017-May-17 16:53N 32°09' W 080°49'0 0.0
2017-May-17 16:11N 32°09' W 080°49'0 0.0
2017-May-17 15:53N 32°09' W 080°49'0 0.0
2017-May-17 15:30N 32°09' W 080°49'2 4.5
2017-May-17 15:00N 32°09' W 080°52'6 5.8
2017-May-17 14:00N 32°05' W 080°57'4 7.5
2017-May-17 13:30N 32°06' W 081°01'4 7.7
2017-May-17 12:59N 32°05' W 081°06'0 0.0
2017-May-17 12:29N 32°05' W 081°06'0 0.0
2017-May-17 11:59N 32°05' W 081°06'0 0.0
2017-May-17 11:29N 32°05' W 081°06'0 0.0
2017-May-17 10:59N 32°05' W 081°06'0 0.0
2017-May-17 10:29N 32°05' W 081°06'0 0.0
2017-May-17 09:59N 32°05' W 081°06'0 0.0
2017-May-17 09:29N 32°05' W 081°06'0 0.0
2017-May-17 08:59N 32°05' W 081°06'0 0.0
2017-May-17 08:29N 32°05' W 081°06'0 0.0
2017-May-17 07:59N 32°05' W 081°06'0 0.0
2017-May-17 07:29N 32°05' W 081°06'0 0.0
2017-May-17 06:59N 32°05' W 081°06'0 0.0
2017-May-17 06:29N 32°05' W 081°06'0 0.0
2017-May-17 05:59N 32°05' W 081°06'0 0.0
2017-May-17 05:29N 32°05' W 081°06'0 0.0
2017-May-17 04:59N 32°05' W 081°06'0 0.0
2017-May-17 04:29N 32°05' W 081°06'0 0.0
2017-May-17 03:59N 32°05' W 081°06'0 0.0
2017-May-17 03:29N 32°05' W 081°06'0 0.0
2017-May-17 02:59N 32°05' W 081°06'0 0.0
2017-May-17 02:29N 32°05' W 081°06'0 0.0
2017-May-17 01:59N 32°05' W 081°06'0 0.0
2017-May-17 01:29N 32°05' W 081°06'0 0.0
2017-May-17 00:59N 32°05' W 081°06'0 0.0
2017-May-17 00:29N 32°05' W 081°06'0 0.0
2017-May-16 23:59N 32°05' W 081°06'0 0.0
2017-May-16 23:29N 32°05' W 081°06'0 0.0
2017-May-16 22:59N 32°05' W 081°06'0 0.0
2017-May-16 22:29N 32°05' W 081°06'0 0.0
2017-May-16 21:59N 32°05' W 081°06'0 0.0
2017-May-16 21:29N 32°05' W 081°06'0 0.0
2017-May-16 20:59N 32°05' W 081°06'0 0.0
2017-May-16 20:29N 32°05' W 081°06'0 0.0
2017-May-16 19:59N 32°05' W 081°06'0 0.0
2017-May-16 19:29N 32°05' W 081°06'0 0.0
2017-May-16 18:59N 32°05' W 081°06'0 0.0
2017-May-16 18:29N 32°05' W 081°06'0 0.0
2017-May-16 17:59N 32°05' W 081°06'0 0.0
2017-May-16 17:29N 32°05' W 081°06'0 0.0
2017-May-16 16:59N 32°05' W 081°06'0 0.0
2017-May-16 16:29N 32°05' W 081°06'0 0.0
2017-May-16 15:59N 32°05' W 081°06'0 0.0
2017-May-16 15:29N 32°05' W 081°06'0 0.0
2017-May-16 14:59N 32°05' W 081°06'0 0.0
2017-May-16 14:29N 32°05' W 081°06'0 0.0
2017-May-16 13:29N 32°05' W 081°06'0 0.0
2017-May-16 12:59N 32°05' W 081°06'0 0.0
2017-May-16 12:29N 32°05' W 081°06'0 0.0
2017-May-16 11:59N 32°05' W 081°06'0 0.0
2017-May-16 11:26N 32°05' W 081°06'0 0.0
2017-May-16 10:59N 32°05' W 081°06'0 0.0
2017-May-16 10:23N 32°05' W 081°06'0 0.0
2017-May-16 09:59N 32°05' W 081°06'0 0.0
2017-May-16 09:29N 32°05' W 081°06'0 0.0
2017-May-16 08:59N 32°05' W 081°06'0 0.0
2017-May-16 08:26N 32°05' W 081°06'0 0.0
2017-May-16 07:59N 32°05' W 081°06'0 0.0
2017-May-16 07:29N 32°05' W 081°06'0 0.0
2017-May-16 06:56N 32°05' W 081°06'0 0.0
2017-May-16 06:29N 32°05' W 081°06'0 0.0
2017-May-16 05:59N 32°05' W 081°06'0 0.0
2017-May-16 05:29N 32°05' W 081°06'0 0.0
2017-May-16 05:00N 32°05' W 081°06'1 2.3
2017-May-16 04:30N 32°05' W 081°04'  
Track history (hours):
 
Tides and Currents Weather Stations Pressure Air Temp Water Temp Dewpoint Dewpoint Depression Visibility Wind Speed Wind Dir Waves Ship Positions

American Star

Owner: American Cruise Lines, Inc, Guilford, CT. More information available from US FCC via Universal Licensing System and Coast Guard Vessel Documentation Center.

Last reported at 2017-May-26 16:30 UTC. Time now 2017-May-26 16:55 UTC.
Position N 39°17' W 076°36'.

Length 60 m; draft 2.1 m.

Type: Ship (hazmat cat C). MMSI: 367184740.

Date/timePositionNaut miles runAvg speedWind from/ knotsBaromVisibWave heightAir tempDewpointWater temp
2017-May-26 16:30N 39°17' W 076°36'4 7.2
2017-May-26 16:00N 39°14' W 076°33'510.1
2017-May-26 15:30N 39°11' W 076°28'5 9.7
2017-May-26 15:00N 39°07' W 076°24'510.1
2017-May-26 14:30N 39°02' W 076°23'9 8.9
2017-May-26 13:30N 38°54' W 076°26'12 1.3
2017-May-26 04:18N 38°47' W 076°13'0 0.0
2017-May-26 02:26N 38°47' W 076°13'0 0.0
2017-May-26 01:50N 38°47' W 076°13'111 4.0
2017-May-24 22:12N 36°57' W 076°20'210.4
2017-May-24 22:00N 36°55' W 076°20'5 9.5
2017-May-24 21:31N 36°51' W 076°18'0 0.2
2017-May-24 21:01N 36°51' W 076°18'0 0.0
2017-May-24 20:28N 36°51' W 076°18'0 0.0
2017-May-24 20:01N 36°51' W 076°18'0 0.0
2017-May-24 19:25N 36°51' W 076°18'0 0.0
2017-May-24 19:01N 36°51' W 076°18'0 0.0
2017-May-24 18:28N 36°51' W 076°18'0 0.0
2017-May-24 17:58N 36°51' W 076°18'0 0.0
2017-May-24 17:31N 36°51' W 076°18'0 0.0
2017-May-24 17:01N 36°51' W 076°18'0 0.0
2017-May-24 16:31N 36°51' W 076°18'0 0.0
2017-May-24 16:01N 36°51' W 076°18'0 0.0
2017-May-24 15:31N 36°51' W 076°18'0 0.0
2017-May-24 15:01N 36°51' W 076°18'0 0.0
2017-May-24 14:28N 36°51' W 076°18'0 0.0
2017-May-24 13:31N 36°51' W 076°18'0 0.0
2017-May-24 13:01N 36°51' W 076°18'0 0.0
2017-May-24 12:28N 36°51' W 076°18'0 0.0
2017-May-24 12:01N 36°51' W 076°18'0 0.0
2017-May-24 11:31N 36°51' W 076°18'0 0.0
2017-May-24 11:01N 36°51' W 076°18'0 0.0
2017-May-24 10:31N 36°51' W 076°18'0 0.0
2017-May-24 10:01N 36°51' W 076°18'0 0.0
2017-May-24 09:28N 36°51' W 076°18'0 0.0
2017-May-24 09:01N 36°51' W 076°18'0 0.0
2017-May-24 08:31N 36°51' W 076°18'0 0.0
2017-May-24 08:01N 36°51' W 076°18'0 0.0
2017-May-24 07:31N 36°51' W 076°18'0 0.0
2017-May-24 07:01N 36°51' W 076°18'0 0.0
2017-May-24 06:31N 36°51' W 076°18'0 0.0
2017-May-24 06:01N 36°51' W 076°18'0 0.0
2017-May-24 05:30N 36°51' W 076°18'0 0.0
2017-May-24 05:00N 36°51' W 076°18'0 0.0
2017-May-24 04:31N 36°51' W 076°18'0 0.0
2017-May-24 04:00N 36°51' W 076°18'3 6.5
2017-May-24 03:30N 36°47' W 076°18'3 6.0
2017-May-24 03:00N 36°44' W 076°18'3 4.1
2017-May-24 02:21N 36°43' W 076°15'101 3.8
2017-May-22 23:47N 35°03' W 076°35'4 9.4
2017-May-22 23:20N 35°01' W 076°39'3 9.0
2017-May-22 22:59N 34°59' W 076°42'3 6.8
2017-May-22 22:31N 34°56' W 076°39'3 6.7
2017-May-22 22:00N 34°53' W 076°41'4 7.8
2017-May-22 21:31N 34°49' W 076°41'4 7.5
2017-May-22 21:01N 34°46' W 076°40'3 6.7
2017-May-22 20:30N 34°42' W 076°41'0 0.1
2017-May-22 19:57N 34°42' W 076°41'0 0.0
2017-May-22 19:30N 34°42' W 076°41'0 0.0
2017-May-22 19:00N 34°42' W 076°41'0 0.0
2017-May-22 18:30N 34°42' W 076°41'0 0.0
2017-May-22 18:00N 34°42' W 076°41'0 0.0
2017-May-22 17:30N 34°42' W 076°41'0 0.0
2017-May-22 17:00N 34°42' W 076°41'0 0.0
2017-May-22 16:30N 34°42' W 076°41'0 0.0
2017-May-22 16:00N 34°42' W 076°41'0 0.0
2017-May-22 15:30N 34°42' W 076°41'0 0.0
2017-May-22 15:00N 34°42' W 076°41'0 0.0
2017-May-22 14:00N 34°42' W 076°41'0 0.0
2017-May-22 12:37N 34°42' W 076°41'0 0.0
2017-May-22 12:28N 34°42' W 076°41'0 0.0
2017-May-22 12:00N 34°42' W 076°41'2 3.8
2017-May-22 11:30N 34°41' W 076°40'5 9.9
2017-May-22 11:00N 34°39' W 076°46'611.5
2017-May-22 10:30N 34°38' W 076°53'  
2017-May-19 11:04N 32°43' W 080°11'2 5.2
2017-May-19 10:36N 32°42' W 080°13'2 4.5
2017-May-19 10:15N 32°41' W 080°14'1 4.3
2017-May-19 09:55N 32°39' W 080°15'3 5.0
2017-May-19 09:24N 32°38' W 080°17'3 7.9
2017-May-19 08:59N 32°38' W 080°21'3 6.1
2017-May-19 08:30N 32°36' W 080°23'4 7.7
2017-May-19 08:00N 32°33' W 080°25'5 8.7
2017-May-19 07:27N 32°28' W 080°25'3 7.8
2017-May-19 07:01N 32°29' W 080°29'610.0
2017-May-19 06:26N 32°30' W 080°36'5 8.3
2017-May-19 05:52N 32°30' W 080°41'3 7.5
2017-May-19 05:30N 32°27' W 080°41'11 0.3
2017-May-17 21:57N 32°16' W 080°43'3 7.3
2017-May-17 21:30N 32°14' W 080°45'4 7.5
2017-May-17 21:00N 32°11' W 080°47'3 5.2
2017-May-17 20:29N 32°09' W 080°49'0 0.0
2017-May-17 19:59N 32°09' W 080°49'0 0.1
2017-May-17 19:23N 32°09' W 080°49'0 0.0
2017-May-17 18:59N 32°09' W 080°49'0 0.0
2017-May-17 18:23N 32°09' W 080°49'0 0.0
2017-May-17 17:59N 32°09' W 080°49'0 0.0
2017-May-17 17:29N 32°09' W 080°49'0 0.0
2017-May-17 16:53N 32°09' W 080°49'0 0.0
2017-May-17 16:11N 32°09' W 080°49'0 0.0
2017-May-17 15:53N 32°09' W 080°49'0 0.0
2017-May-17 15:30N 32°09' W 080°49'2 4.5
2017-May-17 15:00N 32°09' W 080°52'6 5.8
2017-May-17 14:00N 32°05' W 080°57'4 7.5
2017-May-17 13:30N 32°06' W 081°01'4 7.7
2017-May-17 12:59N 32°05' W 081°06'0 0.0
2017-May-17 12:29N 32°05' W 081°06'0 0.0
2017-May-17 11:59N 32°05' W 081°06'0 0.0
2017-May-17 11:29N 32°05' W 081°06'0 0.0
2017-May-17 10:59N 32°05' W 081°06'0 0.0
2017-May-17 10:29N 32°05' W 081°06'0 0.0
2017-May-17 09:59N 32°05' W 081°06'0 0.0
2017-May-17 09:29N 32°05' W 081°06'0 0.0
2017-May-17 08:59N 32°05' W 081°06'0 0.0
2017-May-17 08:29N 32°05' W 081°06'0 0.0
2017-May-17 07:59N 32°05' W 081°06'0 0.0
2017-May-17 07:29N 32°05' W 081°06'0 0.0
2017-May-17 06:59N 32°05' W 081°06'0 0.0
2017-May-17 06:29N 32°05' W 081°06'0 0.0
2017-May-17 05:59N 32°05' W 081°06'0 0.0
2017-May-17 05:29N 32°05' W 081°06'0 0.0
2017-May-17 04:59N 32°05' W 081°06'0 0.0
2017-May-17 04:29N 32°05' W 081°06'0 0.0
2017-May-17 03:59N 32°05' W 081°06'0 0.0
2017-May-17 03:29N 32°05' W 081°06'0 0.0
2017-May-17 02:59N 32°05' W 081°06'0 0.0
2017-May-17 02:29N 32°05' W 081°06'0 0.0
2017-May-17 01:59N 32°05' W 081°06'0 0.0
2017-May-17 01:29N 32°05' W 081°06'0 0.0
2017-May-17 00:59N 32°05' W 081°06'0 0.0
2017-May-17 00:29N 32°05' W 081°06'0 0.0
2017-May-16 23:59N 32°05' W 081°06'0 0.0
2017-May-16 23:29N 32°05' W 081°06'0 0.0
2017-May-16 22:59N 32°05' W 081°06'0 0.0
2017-May-16 22:29N 32°05' W 081°06'0 0.0
2017-May-16 21:59N 32°05' W 081°06'0 0.0
2017-May-16 21:29N 32°05' W 081°06'0 0.0
2017-May-16 20:59N 32°05' W 081°06'0 0.0
2017-May-16 20:29N 32°05' W 081°06'0 0.0
2017-May-16 19:59N 32°05' W 081°06'0 0.0
2017-May-16 19:29N 32°05' W 081°06'0 0.0
2017-May-16 18:59N 32°05' W 081°06'0 0.0
2017-May-16 18:29N 32°05' W 081°06'0 0.0
2017-May-16 17:59N 32°05' W 081°06'0 0.0
2017-May-16 17:29N 32°05' W 081°06'0 0.0
2017-May-16 16:59N 32°05' W 081°06'0 0.0
2017-May-16 16:29N 32°05' W 081°06'0 0.0
2017-May-16 15:59N 32°05' W 081°06'0 0.0
2017-May-16 15:29N 32°05' W 081°06'0 0.0
2017-May-16 14:59N 32°05' W 081°06'0 0.0
2017-May-16 14:29N 32°05' W 081°06'0 0.0
2017-May-16 13:29N 32°05' W 081°06'0 0.0
2017-May-16 12:59N 32°05' W 081°06'0 0.0
2017-May-16 12:29N 32°05' W 081°06'0 0.0
2017-May-16 11:59N 32°05' W 081°06'0 0.0
2017-May-16 11:26N 32°05' W 081°06'0 0.0
2017-May-16 10:59N 32°05' W 081°06'0 0.0
2017-May-16 10:23N 32°05' W 081°06'0 0.0
2017-May-16 09:59N 32°05' W 081°06'0 0.0
2017-May-16 09:29N 32°05' W 081°06'0 0.0
2017-May-16 08:59N 32°05' W 081°06'0 0.0
2017-May-16 08:26N 32°05' W 081°06'0 0.0
2017-May-16 07:59N 32°05' W 081°06'0 0.0
2017-May-16 07:29N 32°05' W 081°06'0 0.0
2017-May-16 06:56N 32°05' W 081°06'0 0.0
2017-May-16 06:29N 32°05' W 081°06'0 0.0
2017-May-16 05:59N 32°05' W 081°06'0 0.0
2017-May-16 05:29N 32°05' W 081°06'0 0.0
2017-May-16 05:00N 32°05' W 081°06'1 2.3
2017-May-16 04:30N 32°05' W 081°04'  

Dump ship's entire track history